createdAt,value
2019-04-25T00:00:15.144Z,11.98
2019-04-25T00:02:46.517Z,11.97
2019-04-25T00:05:18.030Z,12.00
2019-04-25T00:08:25.046Z,11.95
2019-04-25T00:10:57.738Z,11.89
2019-04-25T00:13:29.509Z,11.84
2019-04-25T00:16:01.849Z,11.73
2019-04-25T00:18:33.329Z,11.70
2019-04-25T00:21:23.637Z,11.73
2019-04-25T00:23:59.232Z,11.78
2019-04-25T00:26:35.464Z,11.81
2019-04-25T00:29:06.775Z,11.80
2019-04-25T00:31:38.071Z,11.80
2019-04-25T00:34:10.064Z,11.74
2019-04-25T00:36:43.499Z,11.68
2019-04-25T00:39:14.331Z,11.61
2019-04-25T00:41:46.390Z,11.46
2019-04-25T00:44:17.891Z,11.38
2019-04-25T00:46:51.504Z,11.35
2019-04-25T00:49:23.614Z,11.35
2019-04-25T00:51:55.037Z,11.43
2019-04-25T00:54:26.314Z,11.48
2019-04-25T00:56:59.355Z,11.48
2019-04-25T00:59:45.576Z,11.48
2019-04-25T01:02:26.488Z,11.55
2019-04-25T01:04:57.801Z,11.56
2019-04-25T01:07:32.434Z,11.52
2019-04-25T01:10:06.091Z,11.52
2019-04-25T01:12:37.352Z,11.45
2019-04-25T01:15:09.655Z,11.40
2019-04-25T01:17:41.362Z,11.33
2019-04-25T01:20:13.999Z,11.25
2019-04-25T01:22:45.789Z,11.21
2019-04-25T01:25:17.096Z,11.21
2019-04-25T01:27:48.475Z,11.17
2019-04-25T01:30:21.741Z,11.17
2019-04-25T01:32:54.544Z,11.12
2019-04-25T01:35:45.025Z,11.08
2019-04-25T01:38:24.808Z,11.02
2019-04-25T01:41:15.064Z,11.02
2019-04-25T01:43:57.054Z,11.08
2019-04-25T01:46:27.631Z,11.08
2019-04-25T01:48:58.946Z,11.07
2019-04-25T01:51:30.406Z,10.95
2019-04-25T01:54:01.707Z,10.95
2019-04-25T01:56:33.323Z,10.97
2019-04-25T01:59:05.187Z,10.97
2019-04-25T02:01:38.196Z,10.88
2019-04-25T02:04:09.608Z,10.88
2019-04-25T02:06:41.037Z,10.83
2019-04-25T02:09:13.934Z,10.66
2019-04-25T02:11:59.613Z,10.66
2019-04-25T02:14:30.885Z,10.37
2019-04-25T02:17:04.047Z,10.27
2019-04-25T02:19:35.699Z,10.30
2019-04-25T02:22:07.652Z,10.51
2019-04-25T02:24:38.894Z,10.58
2019-04-25T02:27:10.293Z,10.60
2019-04-25T02:29:44.467Z,10.51
2019-04-25T02:32:15.034Z,10.50
2019-04-25T02:34:46.372Z,10.50
2019-04-25T02:37:17.646Z,10.48
2019-04-25T02:39:49.064Z,10.34
2019-04-25T02:42:20.329Z,10.34
2019-04-25T02:45:10.081Z,10.14
2019-04-25T02:48:07.045Z,10.14
2019-04-25T02:50:51.443Z,10.08
2019-04-25T02:53:44.649Z,10.03
2019-04-25T02:56:30.281Z,9.87
2019-04-25T02:58:49.821Z,9.87
2019-04-25T03:01:25.147Z,9.84
2019-04-25T03:03:54.709Z,9.81
2019-04-25T03:06:25.987Z,9.71
2019-04-25T03:08:58.074Z,9.58
2019-04-25T03:11:30.560Z,9.51
2019-04-25T03:14:02.157Z,9.53
2019-04-25T03:16:35.240Z,9.53
2019-04-25T03:19:40.717Z,9.54
2019-04-25T03:22:15.022Z,9.47
2019-04-25T03:24:46.630Z,9.32
2019-04-25T03:27:18.011Z,9.24
2019-04-25T03:29:50.848Z,9.24
2019-04-25T03:32:27.835Z,9.15
2019-04-25T03:34:55.202Z,9.15
2019-04-25T03:37:26.564Z,9.05
2019-04-25T03:39:57.820Z,9.03
2019-04-25T03:42:29.361Z,9.03
2019-04-25T03:45:03.271Z,9.10
2019-04-25T03:47:34.969Z,9.10
2019-04-25T03:50:07.255Z,9.04
2019-04-25T03:52:39.333Z,9.03
2019-04-25T03:55:10.744Z,9.02
2019-04-25T03:57:42.109Z,9.03
2019-04-25T04:00:14.545Z,8.99
2019-04-25T04:02:45.951Z,8.96
2019-04-25T04:05:17.229Z,8.97
2019-04-25T04:07:48.510Z,8.97
2019-04-25T04:10:21.168Z,8.99
2019-04-25T04:12:54.178Z,9.01
2019-04-25T04:15:28.124Z,8.95
2019-04-25T04:18:39.118Z,8.95
2019-04-25T04:21:19.461Z,8.90
2019-04-25T04:23:57.216Z,8.85
2019-04-25T04:26:28.622Z,8.86
2019-04-25T04:28:59.922Z,8.83
2019-04-25T04:31:31.171Z,8.83
2019-04-25T04:34:03.763Z,8.91
2019-04-25T04:36:35.181Z,8.97
2019-04-25T04:39:07.770Z,9.00
2019-04-25T04:41:40.036Z,9.04
2019-04-25T04:44:11.864Z,9.13
2019-04-25T04:46:43.987Z,9.26
2019-04-25T04:49:15.367Z,9.41
2019-04-25T04:51:46.647Z,9.55
2019-04-25T04:54:18.065Z,9.62
2019-04-25T04:56:49.313Z,9.76
2019-04-25T04:59:20.703Z,9.76
2019-04-25T05:02:03.355Z,9.92
2019-04-25T05:04:43.792Z,10.05
2019-04-25T05:07:34.019Z,10.19
2019-04-25T05:10:05.388Z,10.12
2019-04-25T05:12:36.653Z,10.12
2019-04-25T05:15:08.595Z,10.33
2019-04-25T05:17:40.041Z,10.61
2019-04-25T05:20:12.017Z,10.77
2019-04-25T05:22:44.583Z,10.89
2019-04-25T05:25:17.677Z,10.98
2019-04-25T05:28:00.131Z,10.93
2019-04-25T05:30:27.890Z,10.86
2019-04-25T05:32:59.231Z,11.03
2019-04-25T05:35:30.601Z,10.88
2019-04-25T05:38:03.413Z,11.19
2019-04-25T05:40:39.322Z,11.26
2019-04-25T05:43:13.383Z,11.30
2019-04-25T05:45:45.368Z,11.30
2019-04-25T05:48:17.184Z,11.56
2019-04-25T05:50:48.518Z,11.56
2019-04-25T05:53:19.892Z,11.80
2019-04-25T05:55:51.231Z,11.96
2019-04-25T05:58:24.526Z,11.96
2019-04-25T06:00:56.197Z,12.09
2019-04-25T06:03:27.649Z,12.27
2019-04-25T06:05:59.126Z,12.52
2019-04-25T06:08:32.145Z,12.76
2019-04-25T06:11:14.140Z,12.90
2019-04-25T06:13:50.787Z,12.98
2019-04-25T06:16:29.526Z,13.23
2019-04-25T06:19:20.758Z,13.43
2019-04-25T06:21:53.527Z,13.60
2019-04-25T06:24:47.737Z,13.75
2019-04-25T06:27:27.108Z,13.85
2019-04-25T06:30:05.443Z,13.93
2019-04-25T06:32:36.712Z,14.13
2019-04-25T06:35:08.658Z,14.27
2019-04-25T06:37:39.948Z,14.41
2019-04-25T06:40:11.815Z,14.49
2019-04-25T06:42:43.518Z,14.58
2019-04-25T06:45:55.235Z,14.75
2019-04-25T06:48:53.415Z,14.92
2019-04-25T06:51:44.054Z,15.13
2019-04-25T06:54:16.857Z,15.28
2019-04-25T06:56:48.300Z,15.48
2019-04-25T06:59:20.008Z,15.61
2019-04-25T07:01:51.325Z,15.66
2019-04-25T07:04:25.120Z,15.77
2019-04-25T07:06:55.662Z,15.84
2019-04-25T07:09:29.566Z,15.90
2019-04-25T07:12:00.006Z,16.02
2019-04-25T07:14:31.594Z,16.12
2019-04-25T07:17:04.309Z,16.23
2019-04-25T07:19:35.945Z,16.28
2019-04-25T07:22:07.309Z,16.38
2019-04-25T07:24:38.694Z,16.50
2019-04-25T07:27:28.406Z,16.60
2019-04-25T07:30:31.929Z,16.72
2019-04-25T07:33:23.338Z,16.93
2019-04-25T07:35:57.107Z,17.11
2019-04-25T07:38:29.086Z,17.24
2019-04-25T07:41:03.521Z,17.49
2019-04-25T07:43:36.088Z,17.65
2019-04-25T07:46:08.079Z,17.87
2019-04-25T07:48:39.460Z,18.07
2019-04-25T07:51:11.007Z,18.18
2019-04-25T07:53:43.636Z,18.39
2019-04-25T07:56:15.191Z,18.57
2019-04-25T07:58:52.221Z,18.83
2019-04-25T08:01:19.552Z,18.66
2019-04-25T08:03:50.868Z,18.56
2019-04-25T08:06:24.132Z,18.55
2019-04-25T08:08:55.295Z,18.66
2019-04-25T08:11:28.045Z,18.75
2019-04-25T08:14:08.332Z,18.75
2019-04-25T08:16:41.950Z,18.90
2019-04-25T08:19:13.721Z,18.97
2019-04-25T08:21:45.218Z,19.19
2019-04-25T08:24:16.695Z,19.38
2019-04-25T08:26:47.995Z,19.53
2019-04-25T08:29:19.288Z,19.65
2019-04-25T08:31:50.639Z,19.73
2019-04-25T08:34:21.993Z,19.90
2019-04-25T08:36:54.293Z,20.04
2019-04-25T08:39:25.698Z,20.12
2019-04-25T08:41:57.069Z,20.29
2019-04-25T08:44:28.427Z,20.35
2019-04-25T08:46:59.772Z,20.54
2019-04-25T08:49:40.176Z,20.55
2019-04-25T08:52:14.332Z,20.73
2019-04-25T08:54:57.637Z,20.84
2019-04-25T08:57:46.429Z,20.94
2019-04-25T09:00:31.663Z,21.16
2019-04-25T09:03:06.861Z,21.33
2019-04-25T09:05:44.055Z,21.41
2019-04-25T09:08:14.563Z,21.66
2019-04-25T09:10:45.906Z,21.85
2019-04-25T09:13:17.276Z,21.93
2019-04-25T09:15:48.621Z,21.88
2019-04-25T09:18:19.962Z,22.09
2019-04-25T09:20:51.323Z,22.06
2019-04-25T09:23:23.652Z,22.22
2019-04-25T09:25:55.034Z,22.32
2019-04-25T09:28:26.313Z,22.55
2019-04-25T09:30:57.620Z,22.70
2019-04-25T09:33:28.931Z,23.01
2019-04-25T09:36:00.202Z,23.33
2019-04-25T09:38:31.624Z,23.39
2019-04-25T09:41:03.833Z,23.35
2019-04-25T09:43:35.844Z,23.42
2019-04-25T09:46:22.208Z,23.63
2019-04-25T09:49:15.286Z,23.83
2019-04-25T09:52:03.988Z,24.16
2019-04-25T09:54:55.160Z,24.64
2019-04-25T09:57:53.218Z,24.69
2019-04-25T10:00:33.411Z,24.50
2019-04-25T10:03:05.436Z,24.66
2019-04-25T10:05:37.487Z,24.46
2019-04-25T10:08:09.785Z,24.82
2019-04-25T10:10:42.472Z,24.97
2019-04-25T10:13:13.986Z,25.34
2019-04-25T10:16:08.994Z,25.14
2019-04-25T10:18:41.323Z,24.80
2019-04-25T10:21:14.276Z,25.06
2019-04-25T10:23:46.789Z,24.80
2019-04-25T10:26:21.551Z,24.85
2019-04-25T10:28:52.816Z,25.14
2019-04-25T10:31:24.227Z,25.53
2019-04-25T10:33:55.495Z,25.84
2019-04-25T10:36:26.981Z,26.03
2019-04-25T10:39:07.655Z,26.19
2019-04-25T10:41:33.642Z,26.18
2019-04-25T10:44:04.936Z,26.34
2019-04-25T10:46:37.924Z,26.26
2019-04-25T10:49:09.790Z,26.06
2019-04-25T10:51:42.181Z,26.44
2019-04-25T10:54:14.644Z,26.64
2019-04-25T10:56:47.390Z,26.27
2019-04-25T10:59:19.517Z,26.45
2019-04-25T11:01:50.915Z,26.72
2019-04-25T11:04:31.111Z,26.95
2019-04-25T11:07:03.732Z,26.99
2019-04-25T11:09:35.092Z,27.17
2019-04-25T11:12:09.265Z,26.84
2019-04-25T11:14:42.378Z,27.01
2019-04-25T11:17:15.512Z,27.00
2019-04-25T11:19:47.001Z,27.16
2019-04-25T11:22:18.301Z,27.08
2019-04-25T11:24:50.654Z,26.53
2019-04-25T11:27:23.751Z,26.41
2019-04-25T11:30:08.462Z,26.09
2019-04-25T11:32:28.540Z,26.14
2019-04-25T11:34:59.985Z,26.47
2019-04-25T11:37:34.184Z,26.76
2019-04-25T11:40:32.007Z,26.41
2019-04-25T11:43:04.269Z,26.05
2019-04-25T11:45:37.058Z,26.53
2019-04-25T11:48:10.141Z,27.06
2019-04-25T11:50:44.063Z,26.96
2019-04-25T11:53:15.262Z,26.94
2019-04-25T11:55:48.162Z,26.44
2019-04-25T11:58:19.909Z,26.52
2019-04-25T12:00:51.388Z,26.74
2019-04-25T12:03:24.583Z,26.72
2019-04-25T12:05:56.178Z,26.70
2019-04-25T12:08:30.399Z,26.53
2019-04-25T12:11:01.907Z,26.46
2019-04-25T12:13:34.545Z,27.09
2019-04-25T12:16:06.081Z,27.18
2019-04-25T12:18:37.494Z,27.07
2019-04-25T12:21:08.785Z,27.09
2019-04-25T12:23:50.760Z,26.81
2019-04-25T12:26:22.061Z,26.80
2019-04-25T12:28:54.765Z,26.56
2019-04-25T12:31:26.549Z,26.53
2019-04-25T12:33:58.008Z,26.72
2019-04-25T12:36:29.306Z,26.78
2019-04-25T12:39:01.101Z,26.84
2019-04-25T12:41:32.480Z,26.94
2019-04-25T12:44:21.445Z,27.16
2019-04-25T12:46:54.548Z,27.00
2019-04-25T12:49:26.492Z,26.97
2019-04-25T12:51:58.598Z,27.18
2019-04-25T12:54:30.145Z,26.73
2019-04-25T12:57:01.540Z,26.68
2019-04-25T12:59:32.846Z,26.59
2019-04-25T13:02:04.571Z,26.67
2019-04-25T13:04:35.878Z,26.32
2019-04-25T13:07:07.488Z,26.44
2019-04-25T13:09:38.821Z,26.45
2019-04-25T13:12:10.705Z,26.44
2019-04-25T13:14:42.137Z,26.76
2019-04-25T13:17:13.651Z,26.63
2019-04-25T13:19:47.475Z,26.96
2019-04-25T13:22:18.910Z,26.90
2019-04-25T13:24:53.050Z,27.31
2019-04-25T13:27:30.545Z,27.10
2019-04-25T13:30:26.527Z,27.02
2019-04-25T13:33:21.279Z,27.06
2019-04-25T13:36:02.382Z,27.07
2019-04-25T13:38:33.720Z,26.82
2019-04-25T13:41:05.174Z,27.00
2019-04-25T13:43:36.557Z,27.09
2019-04-25T13:46:07.881Z,27.34
2019-04-25T13:48:39.301Z,27.55
2019-04-25T13:51:10.717Z,27.62
2019-04-25T13:53:43.476Z,27.57
2019-04-25T13:56:14.861Z,27.51
2019-04-25T13:58:46.358Z,27.57
2019-04-25T14:01:18.670Z,27.59
2019-04-25T14:03:50.063Z,27.70
2019-04-25T14:06:21.425Z,27.62
2019-04-25T14:09:03.287Z,27.42
2019-04-25T14:11:35.704Z,27.28
2019-04-25T14:14:13.039Z,27.10
2019-04-25T14:17:14.133Z,27.07
2019-04-25T14:20:04.294Z,27.09
2019-04-25T14:22:35.627Z,27.38
2019-04-25T14:25:08.755Z,27.49
2019-04-25T14:27:40.166Z,27.23
2019-04-25T14:30:13.668Z,27.25
2019-04-25T14:32:46.654Z,27.40
2019-04-25T14:35:18.092Z,27.43
2019-04-25T14:37:49.402Z,27.28
2019-04-25T14:40:21.597Z,27.12
2019-04-25T14:42:53.881Z,27.05
2019-04-25T14:45:25.191Z,27.04
2019-04-25T14:47:56.476Z,27.09
2019-04-25T14:50:27.842Z,27.06
2019-04-25T14:52:59.120Z,27.07
2019-04-25T14:55:41.850Z,27.24
2019-04-25T14:58:14.992Z,27.13
2019-04-25T15:00:48.465Z,27.13
2019-04-25T15:03:19.787Z,27.12
2019-04-25T15:05:51.157Z,27.10
2019-04-25T15:08:22.481Z,27.03
2019-04-25T15:10:53.829Z,26.88
2019-04-25T15:13:25.826Z,26.84
2019-04-25T15:15:57.169Z,26.93
2019-04-25T15:18:28.822Z,26.95
2019-04-25T15:21:00.203Z,26.95
2019-04-25T15:23:32.080Z,26.83
2019-04-25T15:26:03.352Z,26.75
2019-04-25T15:28:34.651Z,26.61
2019-04-25T15:31:05.972Z,26.56
2019-04-25T15:33:37.370Z,26.52
2019-04-25T15:36:20.079Z,26.59
2019-04-25T15:38:57.592Z,26.67
2019-04-25T15:41:36.331Z,26.69
2019-04-25T15:44:26.672Z,26.64
2019-04-25T15:46:59.106Z,26.66
2019-04-25T15:49:31.250Z,26.70
2019-04-25T15:52:02.522Z,26.62
2019-04-25T15:54:33.948Z,26.54
2019-04-25T15:57:05.275Z,26.54
2019-04-25T15:59:36.926Z,26.52
2019-04-25T16:02:10.273Z,26.46
2019-04-25T16:04:41.704Z,26.42
2019-04-25T16:07:13.201Z,26.41
2019-04-25T16:09:44.547Z,26.37
2019-04-25T16:12:16.718Z,26.35
2019-04-25T16:14:48.029Z,26.30
2019-04-25T16:17:19.474Z,26.23
2019-04-25T16:19:50.850Z,26.17
2019-04-25T16:22:22.197Z,26.14
2019-04-25T16:24:53.660Z,26.07
2019-04-25T16:27:24.928Z,26.08
2019-04-25T16:29:56.302Z,26.00
2019-04-25T16:32:28.157Z,25.91
2019-04-25T16:35:00.343Z,25.82
2019-04-25T16:37:32.420Z,25.76
2019-04-25T16:40:04.050Z,25.72
2019-04-25T16:42:35.942Z,25.73
2019-04-25T16:45:08.037Z,25.63
2019-04-25T16:47:39.529Z,25.60
2019-04-25T16:50:11.182Z,25.54
2019-04-25T16:52:42.654Z,25.48
2019-04-25T16:55:14.541Z,25.48
2019-04-25T16:57:46.005Z,25.43
2019-04-25T17:00:36.236Z,25.39
2019-04-25T17:03:07.771Z,25.37
2019-04-25T17:05:40.117Z,25.24
2019-04-25T17:08:12.023Z,25.22
2019-04-25T17:10:43.391Z,25.11
2019-04-25T17:13:14.950Z,24.97
2019-04-25T17:15:55.212Z,24.86
2019-04-25T17:18:31.922Z,24.77
2019-04-25T17:21:06.867Z,24.65
2019-04-25T17:23:38.127Z,24.62
2019-04-25T17:26:09.487Z,24.51
2019-04-25T17:28:42.455Z,24.31
2019-04-25T17:31:32.411Z,24.22
2019-04-25T17:34:17.411Z,24.05
2019-04-25T17:36:58.791Z,24.08
2019-04-25T17:39:35.450Z,23.97
2019-04-25T17:42:07.027Z,23.88
2019-04-25T17:44:38.439Z,23.78
2019-04-25T17:47:09.889Z,23.71
2019-04-25T17:49:42.334Z,23.62
2019-04-25T17:52:14.583Z,23.50
2019-04-25T17:54:46.233Z,23.46
2019-04-25T17:57:17.620Z,23.29
2019-04-25T17:59:49.994Z,23.08
2019-04-25T18:02:21.467Z,22.84
2019-04-25T18:04:52.896Z,22.64
2019-04-25T18:07:24.233Z,22.48
2019-04-25T18:09:55.530Z,22.44
2019-04-25T18:12:26.962Z,22.33
2019-04-25T18:14:59.928Z,22.23
2019-04-25T18:17:31.639Z,22.06
2019-04-25T18:20:10.108Z,21.95
2019-04-25T18:23:00.402Z,21.89
2019-04-25T18:26:02.815Z,21.75
2019-04-25T18:28:52.255Z,21.62
2019-04-25T18:31:23.655Z,21.45
2019-04-25T18:33:58.019Z,21.29
2019-04-25T18:36:45.050Z,21.09
2019-04-25T18:39:27.470Z,20.82
2019-04-25T18:42:22.254Z,20.51
2019-04-25T18:44:53.567Z,20.38
2019-04-25T18:47:24.961Z,20.13
2019-04-25T18:49:56.238Z,20.03
2019-04-25T18:52:49.214Z,19.98
2019-04-25T18:55:27.099Z,19.88
2019-04-25T18:58:15.725Z,19.69
2019-04-25T19:01:14.990Z,19.55
2019-04-25T19:04:01.559Z,19.37
2019-04-25T19:06:32.850Z,19.28
2019-04-25T19:09:05.983Z,19.21
2019-04-25T19:11:39.563Z,19.12
2019-04-25T19:14:10.608Z,19.04
2019-04-25T19:16:42.986Z,18.85
2019-04-25T19:19:14.325Z,18.72
2019-04-25T19:21:45.611Z,18.58
2019-04-25T19:24:17.059Z,18.45
2019-04-25T19:26:48.362Z,18.41
2019-04-25T19:29:19.651Z,18.35
2019-04-25T19:31:53.011Z,18.29
2019-04-25T19:34:24.109Z,18.13
2019-04-25T19:36:55.461Z,18.02
2019-04-25T19:39:28.515Z,17.93
2019-04-25T19:42:21.644Z,17.85
2019-04-25T19:44:59.653Z,17.78
2019-04-25T19:47:31.069Z,17.69
2019-04-25T19:50:02.362Z,17.64
2019-04-25T19:52:35.262Z,17.62
2019-04-25T19:55:07.142Z,17.59
2019-04-25T19:57:38.395Z,17.57
2019-04-25T20:00:09.959Z,17.53
2019-04-25T20:02:50.787Z,17.46
2019-04-25T20:05:30.927Z,17.38
2019-04-25T20:08:14.629Z,17.24
2019-04-25T20:10:53.569Z,17.15
2019-04-25T20:13:24.878Z,16.99
2019-04-25T20:15:56.239Z,16.83
2019-04-25T20:18:27.719Z,16.73
2019-04-25T20:20:59.008Z,16.64
2019-04-25T20:23:30.336Z,16.56
2019-04-25T20:26:01.666Z,16.54
2019-04-25T20:28:33.074Z,16.50
2019-04-25T20:31:04.396Z,16.47
2019-04-25T20:33:35.970Z,16.39
2019-04-25T20:38:40.432Z,16.19
2019-04-25T20:41:11.894Z,16.12
2019-04-25T20:43:43.343Z,16.05
2019-04-25T20:46:14.792Z,15.96
2019-04-25T20:48:46.885Z,15.87
2019-04-25T20:51:18.513Z,15.72
2019-04-25T20:53:50.712Z,15.68
2019-04-25T20:56:22.003Z,15.67
2019-04-25T20:58:53.539Z,15.65
2019-04-25T21:01:24.934Z,15.58
2019-04-25T21:03:56.230Z,15.53
2019-04-25T21:06:32.146Z,15.45
2019-04-25T21:09:03.732Z,15.27
2019-04-25T21:11:35.085Z,15.14
2019-04-25T21:14:23.897Z,15.09
2019-04-25T21:17:14.855Z,15.02
2019-04-25T21:19:48.725Z,14.94
2019-04-25T21:22:19.575Z,15.03
2019-04-25T21:24:51.649Z,15.09
2019-04-25T21:27:23.192Z,15.16
2019-04-25T21:29:55.550Z,15.21
2019-04-25T21:32:27.007Z,15.24
2019-04-25T21:34:59.167Z,15.18
2019-04-25T21:37:30.544Z,15.12
2019-04-25T21:40:27.198Z,14.99
2019-04-25T21:43:10.708Z,14.84
2019-04-25T21:45:42.346Z,14.63
2019-04-25T21:48:14.026Z,14.56
2019-04-25T21:50:45.628Z,14.45
2019-04-25T21:53:19.008Z,14.40
2019-04-25T21:55:50.746Z,14.55
2019-04-25T21:58:22.387Z,14.62
2019-04-25T22:01:18.679Z,14.61
2019-04-25T22:03:50.136Z,14.58
2019-04-25T22:06:21.900Z,14.40
2019-04-25T22:08:54.304Z,14.32
2019-04-25T22:11:26.491Z,14.36
2019-04-25T22:13:57.943Z,14.41
2019-04-25T22:16:29.706Z,14.35
2019-04-25T22:19:02.025Z,14.25
2019-04-25T22:21:41.390Z,14.11
2019-04-25T22:24:15.222Z,14.03
2019-04-25T22:26:46.728Z,13.97
2019-04-25T22:29:18.535Z,13.89
2019-04-25T22:32:01.486Z,13.87
2019-04-25T22:34:51.337Z,13.84
2019-04-25T22:37:11.576Z,13.75
2019-04-25T22:39:43.153Z,13.65
2019-04-25T22:42:14.434Z,13.58
2019-04-25T22:44:45.810Z,13.41
2019-04-25T22:47:17.699Z,13.38
2019-04-25T22:49:49.216Z,13.36
2019-04-25T22:52:20.709Z,13.32
2019-04-25T22:54:52.100Z,13.28
2019-04-25T22:57:23.635Z,13.25
2019-04-25T22:59:55.061Z,13.19
2019-04-25T23:02:32.830Z,13.16
2019-04-25T23:05:16.119Z,13.15
2019-04-25T23:07:45.325Z,13.13
2019-04-25T23:10:16.928Z,13.08
2019-04-25T23:12:48.265Z,13.03
2019-04-25T23:15:19.648Z,12.97
2019-04-25T23:17:51.223Z,12.93
2019-04-25T23:20:22.868Z,12.87
2019-04-25T23:22:54.198Z,12.79
2019-04-25T23:25:30.946Z,12.72
2019-04-25T23:28:27.345Z,12.67
2019-04-25T23:31:29.625Z,12.65
2019-04-25T23:34:01.122Z,12.65
2019-04-25T23:36:32.409Z,12.56
2019-04-25T23:39:07.524Z,12.53
2019-04-25T23:41:39.551Z,12.49
2019-04-25T23:44:10.857Z,12.45
2019-04-25T23:46:43.151Z,12.37
2019-04-25T23:49:14.795Z,12.19
2019-04-25T23:51:46.391Z,12.07
2019-04-25T23:54:17.785Z,12.02
2019-04-25T23:56:49.118Z,12.01
2019-04-25T23:59:20.444Z,12.03
